createdAt,value
2018-08-11T00:02:53.186Z,17.79
2018-08-11T00:07:46.817Z,17.65
2018-08-11T00:12:39.957Z,17.67
2018-08-11T00:17:33.108Z,17.73
2018-08-11T00:22:26.132Z,17.56
2018-08-11T00:27:19.370Z,17.45
2018-08-11T00:32:12.310Z,17.25
2018-08-11T00:37:05.630Z,17.17
2018-08-11T00:41:58.843Z,17.01
2018-08-11T00:46:51.998Z,16.87
2018-08-11T00:51:44.857Z,16.77
2018-08-11T00:56:37.804Z,16.76
2018-08-11T01:01:30.797Z,16.89
2018-08-11T01:06:23.934Z,16.90
2018-08-11T01:11:17.089Z,16.80
2018-08-11T01:16:10.090Z,16.87
2018-08-11T01:21:03.585Z,17.09
2018-08-11T01:25:56.629Z,17.18
2018-08-11T01:30:49.567Z,17.18
2018-08-11T01:35:42.764Z,17.36
2018-08-11T01:40:35.970Z,17.39
2018-08-11T01:45:29.173Z,17.45
2018-08-11T01:50:22.514Z,17.39
2018-08-11T01:55:16.850Z,17.55
2018-08-11T02:00:11.741Z,17.63
2018-08-11T02:05:05.063Z,17.67
2018-08-11T02:09:58.191Z,17.67
2018-08-11T02:14:51.705Z,17.51
2018-08-11T02:19:44.633Z,17.54
2018-08-11T02:24:38.637Z,17.67
2018-08-11T02:29:31.667Z,17.98
2018-08-11T02:34:25.229Z,17.90
2018-08-11T02:39:18.237Z,17.87
2018-08-11T02:44:11.798Z,17.64
2018-08-11T02:49:05.295Z,17.69
2018-08-11T02:53:58.221Z,17.61
2018-08-11T02:58:51.203Z,17.37
2018-08-11T03:03:44.300Z,17.42
2018-08-11T03:08:37.214Z,17.51
2018-08-11T03:13:30.208Z,17.47
2018-08-11T03:18:23.147Z,17.67
2018-08-11T03:23:16.627Z,17.84
2018-08-11T03:28:09.751Z,18.04
2018-08-11T03:33:02.689Z,17.84
2018-08-11T03:37:55.827Z,18.02
2018-08-11T03:42:48.796Z,18.08
2018-08-11T03:47:41.834Z,17.88
2018-08-11T03:52:34.772Z,17.72
2018-08-11T03:57:28.277Z,17.79
2018-08-11T04:02:21.253Z,17.93
2018-08-11T04:07:14.332Z,17.89
2018-08-11T04:12:07.585Z,17.90
2018-08-11T04:17:00.586Z,18.08
2018-08-11T04:21:53.851Z,18.15
2018-08-11T04:26:46.863Z,18.10
2018-08-11T04:31:40.368Z,18.17
2018-08-11T04:36:33.311Z,18.27
2018-08-11T04:41:26.499Z,18.53
2018-08-11T04:46:19.515Z,18.64
2018-08-11T04:51:12.963Z,19.01
2018-08-11T04:56:06.150Z,19.37
2018-08-11T05:00:59.261Z,19.73
2018-08-11T05:05:52.348Z,20.10
2018-08-11T05:10:45.937Z,20.18
2018-08-11T05:15:38.882Z,20.35
2018-08-11T05:20:31.975Z,20.53
2018-08-11T05:25:25.320Z,20.59
2018-08-11T05:30:18.568Z,20.84
2018-08-11T05:35:11.872Z,21.09
2018-08-11T05:40:05.450Z,21.29
2018-08-11T05:44:59.394Z,21.53
2018-08-11T05:49:52.723Z,21.84
2018-08-11T05:54:45.854Z,22.04
2018-08-11T05:59:39.746Z,22.28
2018-08-11T06:04:35.527Z,22.63
2018-08-11T06:09:28.518Z,22.80
2018-08-11T06:14:21.478Z,23.21
2018-08-11T06:19:19.228Z,23.56
2018-08-11T06:24:12.702Z,23.65
2018-08-11T06:29:12.799Z,23.79
2018-08-11T06:34:05.892Z,23.72
2018-08-11T06:38:58.932Z,23.76
2018-08-11T06:43:52.730Z,23.89
2018-08-11T06:48:46.260Z,23.72
2018-08-11T06:53:40.423Z,23.91
2018-08-11T06:58:33.433Z,23.96
2018-08-11T07:03:26.412Z,24.20
2018-08-11T07:08:19.320Z,24.42
2018-08-11T07:13:12.236Z,24.49
2018-08-11T07:18:05.214Z,24.33
2018-08-11T07:22:58.231Z,24.36
2018-08-11T07:27:51.327Z,24.42
2018-08-11T07:32:44.377Z,24.59
2018-08-11T07:37:37.443Z,24.60
2018-08-11T07:42:30.550Z,24.93
2018-08-11T07:47:23.713Z,24.87
2018-08-11T07:52:16.832Z,25.08
2018-08-11T07:57:09.960Z,25.12
2018-08-11T08:02:03.214Z,25.24
2018-08-11T08:06:57.271Z,25.30
2018-08-11T08:11:50.244Z,25.13
2018-08-11T08:16:43.855Z,25.46
2018-08-11T08:21:37.724Z,25.25
2018-08-11T08:26:30.999Z,25.53
2018-08-11T08:31:23.828Z,25.72
2018-08-11T08:36:16.796Z,25.85
2018-08-11T08:41:09.895Z,26.15
2018-08-11T08:46:03.171Z,26.21
2018-08-11T08:50:56.094Z,25.89
2018-08-11T08:55:49.025Z,25.88
2018-08-11T09:00:42.309Z,25.94
2018-08-11T09:05:35.278Z,26.15
2018-08-11T09:10:28.402Z,26.17
2018-08-11T09:15:21.499Z,26.40
2018-08-11T09:20:14.664Z,26.32
2018-08-11T09:25:07.561Z,26.50
2018-08-11T09:30:00.547Z,26.72
2018-08-11T09:34:53.521Z,26.93
2018-08-11T09:39:46.590Z,27.04
2018-08-11T09:44:39.566Z,26.98
2018-08-11T09:49:33.023Z,26.87
2018-08-11T09:54:25.970Z,27.05
2018-08-11T09:59:19.186Z,27.36
2018-08-11T10:04:12.650Z,27.27
2018-08-11T10:09:08.229Z,27.30
2018-08-11T10:14:01.297Z,27.12
2018-08-11T10:18:54.430Z,26.97
2018-08-11T10:23:47.462Z,26.84
2018-08-11T10:28:40.539Z,27.03
2018-08-11T10:33:33.501Z,27.43
2018-08-11T10:38:26.411Z,27.49
2018-08-11T10:43:19.974Z,27.61
2018-08-11T10:48:13.242Z,27.62
2018-08-11T10:53:06.391Z,27.59
2018-08-11T10:57:59.699Z,27.35
2018-08-11T11:02:53.205Z,26.95
2018-08-11T11:07:46.378Z,27.21
2018-08-11T11:12:39.383Z,27.24
2018-08-11T11:17:33.226Z,27.23
2018-08-11T11:22:26.097Z,26.97
2018-08-11T11:27:19.460Z,27.48
2018-08-11T11:32:12.450Z,28.03
2018-08-11T11:37:05.544Z,27.68
2018-08-11T11:41:58.605Z,27.13
2018-08-11T11:46:51.522Z,26.80
2018-08-11T11:51:44.651Z,26.97
2018-08-11T11:56:37.726Z,27.67
2018-08-11T12:01:30.667Z,27.52
2018-08-11T12:06:23.746Z,27.16
2018-08-11T12:11:16.870Z,27.12
2018-08-11T12:16:10.466Z,26.91
2018-08-11T12:21:03.392Z,27.02
2018-08-11T12:25:56.559Z,27.21
2018-08-11T12:30:49.546Z,27.55
2018-08-11T12:35:42.778Z,27.75
2018-08-11T12:40:35.931Z,27.85
2018-08-11T12:45:30.007Z,28.07
2018-08-11T12:50:23.116Z,28.24
2018-08-11T12:55:16.205Z,28.40
2018-08-11T13:00:09.749Z,28.84
2018-08-11T13:05:02.780Z,28.21
2018-08-11T13:09:55.807Z,27.89
2018-08-11T13:14:48.774Z,28.20
2018-08-11T13:19:41.789Z,28.54
2018-08-11T13:24:34.933Z,29.99
2018-08-11T13:29:27.993Z,30.47
2018-08-11T13:34:20.964Z,30.37
2018-08-11T13:39:14.119Z,32.32
2018-08-11T13:44:07.009Z,33.54
2018-08-11T13:49:00.116Z,34.23
2018-08-11T13:53:53.472Z,32.63
2018-08-11T13:58:46.421Z,30.55
2018-08-11T14:03:39.556Z,29.16
2018-08-11T14:08:32.639Z,28.48
2018-08-11T14:13:25.632Z,28.42
2018-08-11T14:18:18.731Z,28.30
2018-08-11T14:23:12.645Z,28.00
2018-08-11T14:28:05.954Z,27.73
2018-08-11T14:32:59.055Z,27.69
2018-08-11T14:37:52.298Z,27.43
2018-08-11T14:42:48.301Z,27.41
2018-08-11T14:47:41.330Z,27.43
2018-08-11T14:52:35.345Z,27.61
2018-08-11T14:57:28.258Z,27.67
2018-08-11T15:02:21.282Z,27.64
2018-08-11T15:07:14.531Z,27.95
2018-08-11T15:12:08.235Z,29.63
2018-08-11T15:17:01.566Z,30.52
2018-08-11T15:21:55.076Z,29.78
2018-08-11T15:26:48.332Z,29.77
2018-08-11T15:31:41.649Z,29.82
2018-08-11T15:36:34.747Z,30.04
2018-08-11T15:41:27.753Z,29.85
2018-08-11T15:46:20.861Z,29.27
2018-08-11T15:51:14.019Z,28.72
2018-08-11T15:56:06.998Z,28.38
2018-08-11T16:01:00.714Z,28.82
2018-08-11T16:05:53.837Z,27.97
2018-08-11T16:10:47.058Z,27.88
2018-08-11T16:15:40.534Z,28.18
2018-08-11T16:20:33.703Z,28.07
2018-08-11T16:25:26.907Z,27.25
2018-08-11T16:30:20.198Z,26.97
2018-08-11T16:35:13.164Z,26.76
2018-08-11T16:40:07.854Z,26.74
2018-08-11T16:45:00.905Z,26.66
2018-08-11T16:49:53.976Z,26.54
2018-08-11T16:54:47.377Z,26.41
2018-08-11T16:59:40.478Z,26.22
2018-08-11T17:04:33.406Z,26.22
2018-08-11T17:09:26.572Z,26.09
2018-08-11T17:14:19.722Z,25.85
2018-08-11T17:19:12.898Z,25.65
2018-08-11T17:24:06.276Z,25.40
2018-08-11T17:28:59.654Z,25.13
2018-08-11T17:33:52.800Z,24.98
2018-08-11T17:38:46.189Z,24.76
2018-08-11T17:43:39.117Z,24.67
2018-08-11T17:48:32.277Z,24.43
2018-08-11T17:53:25.628Z,24.21
2018-08-11T17:58:18.596Z,24.09
2018-08-11T18:03:11.941Z,23.87
2018-08-11T18:08:05.565Z,23.64
2018-08-11T18:12:58.539Z,23.22
2018-08-11T18:17:51.546Z,22.90
2018-08-11T18:22:44.495Z,22.58
2018-08-11T18:27:37.542Z,22.48
2018-08-11T18:32:30.629Z,22.35
2018-08-11T18:37:23.806Z,22.28
2018-08-11T18:42:17.049Z,22.16
2018-08-11T18:47:09.982Z,22.12
2018-08-11T18:52:03.004Z,21.79
2018-08-11T18:56:56.147Z,21.67
2018-08-11T19:01:49.118Z,21.64
2018-08-11T19:06:42.256Z,21.50
2018-08-11T19:11:35.216Z,21.40
2018-08-11T19:16:28.305Z,21.33
2018-08-11T19:21:21.274Z,20.99
2018-08-11T19:26:14.368Z,20.96
2018-08-11T19:31:07.545Z,20.86
2018-08-11T19:36:01.663Z,20.79
2018-08-11T19:40:54.816Z,20.77
2018-08-11T19:45:47.726Z,20.65
2018-08-11T19:50:40.742Z,20.45
2018-08-11T19:55:33.828Z,20.16
2018-08-11T20:00:26.795Z,20.15
2018-08-11T20:05:19.807Z,19.99
2018-08-11T20:10:12.802Z,19.92
2018-08-11T20:15:07.249Z,20.03
2018-08-11T20:20:00.205Z,19.97
2018-08-11T20:24:53.113Z,19.75
2018-08-11T20:29:46.100Z,19.66
2018-08-11T20:34:39.732Z,19.35
2018-08-11T20:39:32.798Z,19.27
2018-08-11T20:44:25.943Z,19.43
2018-08-11T20:49:18.947Z,19.34
2018-08-11T20:54:11.935Z,19.23
2018-08-11T20:59:05.285Z,19.34
2018-08-11T21:03:58.539Z,19.17
2018-08-11T21:08:52.054Z,19.09
2018-08-11T21:13:45.018Z,18.94
2018-08-11T21:18:38.222Z,18.99
2018-08-11T21:23:31.216Z,19.06
2018-08-11T21:28:24.125Z,19.05
2018-08-11T21:33:17.062Z,19.05
2018-08-11T21:38:10.398Z,18.86
2018-08-11T21:43:03.684Z,18.83
2018-08-11T21:47:56.791Z,18.68
2018-08-11T21:52:49.786Z,18.62
2018-08-11T21:57:43.074Z,18.54
2018-08-11T22:02:36.054Z,18.60
2018-08-11T22:07:29.167Z,18.57
2018-08-11T22:12:22.302Z,18.59
2018-08-11T22:17:15.459Z,18.47
2018-08-11T22:22:08.613Z,18.43
2018-08-11T22:27:01.717Z,18.42
2018-08-11T22:31:55.044Z,18.42
2018-08-11T22:36:48.038Z,18.46
2018-08-11T22:41:41.110Z,18.39
2018-08-11T22:46:34.335Z,18.37
2018-08-11T22:51:27.317Z,18.30
2018-08-11T22:56:20.584Z,18.38
2018-08-11T23:01:13.873Z,18.23
2018-08-11T23:06:06.890Z,18.27
2018-08-11T23:10:59.986Z,18.25
2018-08-11T23:15:52.990Z,18.03
2018-08-11T23:20:45.982Z,18.02
2018-08-11T23:25:38.918Z,17.91
2018-08-11T23:30:32.254Z,17.81
2018-08-11T23:35:25.180Z,17.68
2018-08-11T23:40:18.698Z,17.62
2018-08-11T23:45:15.306Z,17.52
2018-08-11T23:50:09.302Z,17.55
2018-08-11T23:55:02.331Z,17.40
2018-08-11T23:59:55.395Z,17.33
